createdAt,value
2018-07-01T00:01:17.881Z,45.00
2018-07-01T00:03:46.360Z,45.00
2018-07-01T00:06:14.832Z,45.30
2018-07-01T00:08:43.287Z,45.50
2018-07-01T00:13:39.884Z,46.00
2018-07-01T00:16:08.380Z,46.20
2018-07-01T00:18:36.872Z,46.20
2018-07-01T00:21:05.428Z,46.30
2018-07-01T00:23:33.884Z,46.40
2018-07-01T00:26:02.347Z,46.80
2018-07-01T00:30:59.000Z,47.50
2018-07-01T00:33:27.447Z,47.10
2018-07-01T00:35:56.164Z,47.80
2018-07-01T00:38:24.584Z,47.40
2018-07-01T00:40:53.065Z,47.70
2018-07-01T00:43:21.507Z,47.60
2018-07-01T00:45:49.981Z,47.90
2018-07-01T00:48:18.412Z,48.40
2018-07-01T00:50:46.849Z,48.20
2018-07-01T00:53:15.275Z,48.50
2018-07-01T00:55:43.724Z,49.30
2018-07-01T01:00:40.280Z,48.90
2018-07-01T01:05:36.864Z,49.10
2018-07-01T01:08:05.412Z,49.40
2018-07-01T01:10:33.852Z,49.30
2018-07-01T01:13:02.343Z,49.50
2018-07-01T01:15:30.807Z,49.60
2018-07-01T01:17:59.281Z,49.60
2018-07-01T01:20:27.727Z,49.80
2018-07-01T01:22:56.220Z,49.90
2018-07-01T01:25:24.640Z,50.10
2018-07-01T01:27:53.072Z,50.20
2018-07-01T01:30:21.544Z,50.40
2018-07-01T01:32:50.044Z,50.60
2018-07-01T01:35:18.573Z,50.70
2018-07-01T01:37:47.056Z,50.80
2018-07-01T01:40:17.432Z,51.50
2018-07-01T01:42:51.096Z,51.00
2018-07-01T01:45:24.948Z,51.20
2018-07-01T01:48:57.447Z,51.40
2018-07-01T01:51:33.756Z,51.50
2018-07-01T01:54:08.366Z,51.80
2018-07-01T01:56:44.852Z,51.90
2018-07-01T02:00:19.432Z,52.10
2018-07-01T02:02:54.387Z,52.60
2018-07-01T02:05:36.476Z,52.50
2018-07-01T02:08:10.583Z,52.90
2018-07-01T02:10:39.084Z,53.20
2018-07-01T02:13:07.580Z,53.30
2018-07-01T02:15:42.733Z,53.40
2018-07-01T02:18:11.216Z,53.60
2018-07-01T02:20:40.979Z,54.10
2018-07-01T02:23:30.196Z,53.80
2018-07-01T02:25:58.700Z,54.00
2018-07-01T02:28:27.184Z,54.00
2018-07-01T02:30:55.639Z,54.30
2018-07-01T02:35:52.227Z,54.40
2018-07-01T02:38:20.682Z,54.50
2018-07-01T02:40:49.175Z,54.80
2018-07-01T02:43:17.640Z,54.80
2018-07-01T02:45:46.115Z,55.00
2018-07-01T02:50:42.765Z,55.20
2018-07-01T02:53:11.236Z,55.20
2018-07-01T02:55:39.684Z,55.00
2018-07-01T02:58:08.196Z,56.20
2018-07-01T03:00:36.675Z,55.80
2018-07-01T03:03:05.212Z,55.90
2018-07-01T03:05:33.672Z,56.10
2018-07-01T03:10:30.328Z,56.70
2018-07-01T03:12:58.799Z,57.30
2018-07-01T03:15:27.288Z,57.70
2018-07-01T03:20:23.884Z,57.30
2018-07-01T03:22:52.372Z,57.50
2018-07-01T03:25:20.860Z,57.80
2018-07-01T03:27:49.323Z,58.10
2018-07-01T03:30:17.807Z,58.10
2018-07-01T03:32:46.260Z,58.40
2018-07-01T03:35:14.763Z,58.40
2018-07-01T03:37:43.225Z,58.50
2018-07-01T03:40:11.696Z,58.70
2018-07-01T03:45:08.315Z,59.40
2018-07-01T03:47:36.776Z,59.70
2018-07-01T03:50:05.374Z,59.80
2018-07-01T03:52:33.860Z,60.00
2018-07-01T03:55:02.303Z,60.20
2018-07-01T03:57:30.804Z,60.70
2018-07-01T03:59:59.271Z,60.90
2018-07-01T04:02:27.771Z,61.30
2018-07-01T04:04:56.228Z,61.20
2018-07-01T04:07:24.731Z,61.40
2018-07-01T04:09:53.188Z,62.30
2018-07-01T04:12:21.675Z,62.10
2018-07-01T04:14:50.139Z,62.60
2018-07-01T04:19:46.735Z,63.00
2018-07-01T04:22:15.216Z,63.50
2018-07-01T04:27:11.859Z,63.50
2018-07-01T04:29:40.350Z,63.80
2018-07-01T04:32:08.808Z,63.90
2018-07-01T04:34:37.290Z,64.20
2018-07-01T04:37:06.119Z,64.30
2018-07-01T04:39:34.583Z,64.30
2018-07-01T04:42:03.047Z,64.90
2018-07-01T04:44:31.531Z,65.10
2018-07-01T04:46:59.984Z,66.30
2018-07-01T04:49:28.460Z,65.60
2018-07-01T04:54:25.392Z,67.10
2018-07-01T04:56:53.884Z,67.20
2018-07-01T04:59:22.359Z,67.50
2018-07-01T05:01:50.907Z,67.90
2018-07-01T05:04:19.340Z,67.40
2018-07-01T05:06:47.799Z,67.90
2018-07-01T05:09:16.267Z,68.00
2018-07-01T05:11:44.732Z,68.40
2018-07-01T05:14:13.199Z,68.80
2018-07-01T05:16:41.660Z,69.00
2018-07-01T05:19:10.348Z,69.10
2018-07-01T05:21:38.827Z,68.80
2018-07-01T05:24:07.323Z,69.00
2018-07-01T05:29:04.013Z,69.10
2018-07-01T05:31:32.531Z,69.50
2018-07-01T05:34:00.976Z,69.40
2018-07-01T05:36:29.456Z,69.30
2018-07-01T05:38:57.947Z,69.40
2018-07-01T05:41:26.432Z,69.40
2018-07-01T05:43:54.920Z,70.10
2018-07-01T05:46:23.412Z,69.90
2018-07-01T05:48:51.927Z,69.80
2018-07-01T05:51:20.384Z,70.50
2018-07-01T05:53:48.875Z,70.00
2018-07-01T05:56:17.351Z,70.40
2018-07-01T05:58:45.828Z,69.70
2018-07-01T06:01:14.316Z,70.00
2018-07-01T06:03:42.833Z,70.00
2018-07-01T06:06:11.367Z,69.90
2018-07-01T06:08:39.868Z,69.80
2018-07-01T06:11:08.359Z,69.70
2018-07-01T06:13:36.852Z,69.40
2018-07-01T06:16:05.444Z,70.20
2018-07-01T06:18:33.899Z,69.70
2018-07-01T06:21:02.387Z,69.30
2018-07-01T06:23:30.860Z,69.30
2018-07-01T06:25:59.376Z,69.20
2018-07-01T06:28:27.847Z,69.00
2018-07-01T06:33:24.484Z,68.00
2018-07-01T06:35:52.987Z,67.80
2018-07-01T06:40:49.588Z,66.50
2018-07-01T06:43:18.059Z,65.60
2018-07-01T06:45:46.539Z,64.50
2018-07-01T06:48:15.024Z,63.70
2018-07-01T06:50:43.465Z,64.10
2018-07-01T06:55:40.091Z,63.00
2018-07-01T06:58:08.580Z,61.80
2018-07-01T07:00:37.027Z,62.30
2018-07-01T07:03:05.756Z,60.80
2018-07-01T07:05:34.215Z,60.70
2018-07-01T07:08:02.747Z,60.20
2018-07-01T07:10:31.175Z,59.40
2018-07-01T07:12:59.691Z,59.40
2018-07-01T07:17:56.272Z,57.60
2018-07-01T07:20:24.768Z,56.80
2018-07-01T07:22:53.237Z,56.90
2018-07-01T07:25:21.711Z,56.60
2018-07-01T07:27:50.187Z,56.10
2018-07-01T07:30:18.696Z,56.00
2018-07-01T07:32:47.164Z,55.60
2018-07-01T07:35:15.640Z,55.70
2018-07-01T07:37:44.092Z,55.80
2018-07-01T07:42:40.711Z,56.10
2018-07-01T07:45:09.201Z,55.80
2018-07-01T07:47:37.659Z,54.40
2018-07-01T07:50:06.235Z,53.90
2018-07-01T07:52:34.695Z,54.20
2018-07-01T07:55:03.257Z,54.20
2018-07-01T07:57:31.719Z,53.90
2018-07-01T08:00:00.205Z,51.90
2018-07-01T08:02:28.704Z,48.80
2018-07-01T08:04:57.276Z,49.80
2018-07-01T08:07:25.818Z,48.80
2018-07-01T08:09:54.345Z,48.50
2018-07-01T08:12:22.875Z,49.10
2018-07-01T08:14:51.328Z,48.30
2018-07-01T08:19:47.943Z,48.50
2018-07-01T08:22:16.468Z,48.20
2018-07-01T08:24:44.952Z,46.50
2018-07-01T08:27:13.423Z,47.00
2018-07-01T08:29:41.900Z,47.40
2018-07-01T08:32:10.351Z,47.00
2018-07-01T08:34:38.827Z,47.20
2018-07-01T08:37:07.320Z,46.80
2018-07-01T08:39:35.803Z,45.10
2018-07-01T08:42:21.919Z,45.80
2018-07-01T08:44:51.552Z,44.80
2018-07-01T08:47:20.092Z,45.70
2018-07-01T08:49:48.571Z,46.00
2018-07-01T08:52:17.208Z,45.40
2018-07-01T08:54:45.643Z,44.50
2018-07-01T08:57:15.595Z,46.00
2018-07-01T08:59:44.867Z,47.40
2018-07-01T09:02:13.444Z,46.40
2018-07-01T09:04:42.240Z,45.50
2018-07-01T09:07:10.724Z,46.10
2018-07-01T09:09:39.264Z,44.50
2018-07-01T09:12:07.788Z,44.10
2018-07-01T09:14:36.276Z,43.40
2018-07-01T09:19:32.960Z,44.20
2018-07-01T09:22:01.416Z,44.60
2018-07-01T09:24:29.929Z,43.20
2018-07-01T09:26:58.415Z,43.90
2018-07-01T09:29:26.916Z,43.50
2018-07-01T09:31:56.187Z,43.20
2018-07-01T09:34:25.880Z,43.30
2018-07-01T09:36:54.860Z,42.00
2018-07-01T09:39:23.573Z,43.70
2018-07-01T09:41:53.267Z,43.50
2018-07-01T09:46:49.884Z,43.90
2018-07-01T09:49:18.366Z,44.20
2018-07-01T09:51:46.824Z,42.90
2018-07-01T09:54:15.296Z,44.40
2018-07-01T09:56:43.791Z,43.80
2018-07-01T09:59:12.248Z,43.50
2018-07-01T10:01:40.749Z,43.20
2018-07-01T10:04:09.221Z,43.50
2018-07-01T10:06:37.744Z,43.50
2018-07-01T10:09:09.432Z,43.20
2018-07-01T10:11:38.267Z,43.80
2018-07-01T10:14:07.711Z,42.20
2018-07-01T10:16:36.236Z,41.70
2018-07-01T10:19:04.884Z,42.00
2018-07-01T10:24:01.536Z,41.40
2018-07-01T10:26:30.032Z,42.10
2018-07-01T10:29:16.768Z,41.40
2018-07-01T10:31:45.836Z,41.60
2018-07-01T10:34:15.160Z,40.20
2018-07-01T10:36:43.719Z,40.90
2018-07-01T10:39:18.157Z,41.20
2018-07-01T10:41:46.629Z,40.20
2018-07-01T10:44:15.124Z,39.40
2018-07-01T10:46:43.608Z,39.90
2018-07-01T10:49:12.080Z,40.30
2018-07-01T10:51:40.604Z,40.70
2018-07-01T10:54:09.032Z,41.00
2018-07-01T10:56:37.540Z,39.80
2018-07-01T10:59:06.059Z,39.60
2018-07-01T11:01:34.554Z,40.00
2018-07-01T11:04:03.080Z,39.60
2018-07-01T11:06:31.591Z,39.50
2018-07-01T11:09:00.096Z,38.90
2018-07-01T11:11:28.584Z,37.40
2018-07-01T11:13:57.115Z,37.90
2018-07-01T11:16:25.562Z,36.80
2018-07-01T11:18:54.051Z,36.80
2018-07-01T11:23:50.652Z,35.60
2018-07-01T11:26:19.135Z,35.90
2018-07-01T11:28:47.599Z,35.90
2018-07-01T11:31:16.096Z,36.20
2018-07-01T11:33:44.593Z,35.70
2018-07-01T11:36:13.074Z,35.10
2018-07-01T11:38:41.535Z,34.30
2018-07-01T11:41:10.007Z,34.90
2018-07-01T11:43:38.485Z,33.80
2018-07-01T11:46:06.992Z,33.20
2018-07-01T11:48:35.471Z,32.90
2018-07-01T11:51:03.943Z,31.90
2018-07-01T11:53:32.435Z,31.90
2018-07-01T11:56:00.888Z,32.10
2018-07-01T11:58:29.372Z,31.30
2018-07-01T12:00:57.815Z,32.00
2018-07-01T12:03:26.268Z,31.80
2018-07-01T12:05:54.767Z,30.50
2018-07-01T12:08:23.216Z,29.90
2018-07-01T12:10:51.711Z,29.20
2018-07-01T12:13:20.176Z,29.40
2018-07-01T12:15:48.652Z,29.10
2018-07-01T12:18:17.111Z,28.60
2018-07-01T12:20:45.608Z,27.20
2018-07-01T12:23:14.058Z,27.30
2018-07-01T12:25:42.508Z,27.70
2018-07-01T12:28:11.016Z,27.90
2018-07-01T12:30:39.488Z,27.30
2018-07-01T12:33:07.984Z,26.80
2018-07-01T12:38:04.692Z,24.90
2018-07-01T12:40:33.175Z,24.00
2018-07-01T12:43:01.756Z,23.40
2018-07-01T12:45:30.247Z,21.70
2018-07-01T12:47:58.731Z,20.80
2018-07-01T12:50:27.224Z,20.00
2018-07-01T12:52:55.704Z,19.60
2018-07-01T12:55:24.191Z,18.20
2018-07-01T12:57:52.667Z,18.20
2018-07-01T13:00:21.166Z,17.90
2018-07-01T13:02:49.664Z,18.20
2018-07-01T13:05:18.123Z,18.30
2018-07-01T13:07:46.608Z,18.80
2018-07-01T13:10:15.104Z,17.80
2018-07-01T13:12:43.580Z,17.60
2018-07-01T13:17:40.237Z,16.70
2018-07-01T13:22:36.847Z,16.70
2018-07-01T13:25:05.554Z,16.20
2018-07-01T13:27:34.118Z,16.40
2018-07-01T13:30:02.602Z,16.40
2018-07-01T13:32:31.428Z,16.60
2018-07-01T13:37:28.075Z,17.00
2018-07-01T13:39:56.543Z,16.80
2018-07-01T13:42:25.099Z,16.30
2018-07-01T13:44:53.560Z,16.60
2018-07-01T13:47:22.045Z,16.30
2018-07-01T13:49:50.538Z,16.80
2018-07-01T13:52:18.980Z,16.90
2018-07-01T13:57:15.580Z,18.10
2018-07-01T13:59:44.040Z,18.50
2018-07-01T14:02:12.524Z,19.00
2018-07-01T14:04:40.984Z,19.50
2018-07-01T14:07:09.559Z,19.60
2018-07-01T14:09:38.069Z,20.40
2018-07-01T14:12:06.600Z,21.30
2018-07-01T14:14:35.071Z,21.00
2018-07-01T14:17:03.560Z,20.90
2018-07-01T14:19:32.048Z,21.40
2018-07-01T14:22:00.524Z,21.50
2018-07-01T14:24:29.047Z,21.90
2018-07-01T14:29:25.700Z,22.40
2018-07-01T14:34:22.331Z,22.20
2018-07-01T14:36:50.835Z,21.90
2018-07-01T14:39:19.285Z,22.00
2018-07-01T14:41:47.796Z,22.70
2018-07-01T14:46:44.416Z,22.70
2018-07-01T14:49:12.935Z,23.40
2018-07-01T14:51:41.360Z,23.50
2018-07-01T14:54:09.821Z,23.50
2018-07-01T14:56:38.300Z,23.40
2018-07-01T14:59:06.771Z,23.70
2018-07-01T15:01:35.243Z,24.20
2018-07-01T15:06:31.915Z,24.20
2018-07-01T15:09:00.404Z,23.80
2018-07-01T15:11:28.876Z,23.90
2018-07-01T15:13:57.355Z,24.00
2018-07-01T15:16:25.860Z,23.80
2018-07-01T15:18:54.317Z,24.00
2018-07-01T15:21:22.820Z,24.20
2018-07-01T15:23:51.311Z,24.10
2018-07-01T15:26:19.768Z,24.10
2018-07-01T15:28:48.232Z,24.00
2018-07-01T15:33:44.851Z,24.30
2018-07-01T15:36:13.320Z,23.90
2018-07-01T15:38:41.791Z,24.50
2018-07-01T15:41:10.348Z,24.90
2018-07-01T15:43:38.795Z,24.50
2018-07-01T15:46:07.509Z,24.70
2018-07-01T15:51:04.291Z,24.70
2018-07-01T15:53:32.760Z,24.30
2018-07-01T15:56:01.219Z,24.70
2018-07-01T16:00:57.840Z,24.60
2018-07-01T16:03:26.319Z,24.80
2018-07-01T16:05:54.808Z,24.80
2018-07-01T16:08:23.295Z,24.80
2018-07-01T16:10:51.769Z,25.00
2018-07-01T16:13:20.252Z,24.90
2018-07-01T16:15:48.706Z,25.10
2018-07-01T16:18:17.464Z,25.10
2018-07-01T16:23:14.084Z,24.90
2018-07-01T16:25:48.023Z,25.20
2018-07-01T16:30:50.142Z,25.50
2018-07-01T16:33:18.608Z,25.50
2018-07-01T16:35:47.288Z,25.70
2018-07-01T16:38:15.763Z,25.70
2018-07-01T16:40:44.269Z,25.80
2018-07-01T16:43:12.764Z,25.90
2018-07-01T16:45:41.240Z,25.90
2018-07-01T16:48:09.708Z,26.10
2018-07-01T16:50:38.206Z,26.40
2018-07-01T16:53:06.699Z,26.40
2018-07-01T16:55:35.196Z,26.80
2018-07-01T17:00:31.812Z,27.40
2018-07-01T17:03:00.267Z,27.60
2018-07-01T17:07:56.880Z,27.50
2018-07-01T17:10:25.348Z,27.90
2018-07-01T17:12:53.835Z,27.90
2018-07-01T17:15:22.296Z,28.20
2018-07-01T17:17:50.848Z,28.10
2018-07-01T17:20:19.300Z,28.30
2018-07-01T17:22:47.784Z,28.20
2018-07-01T17:25:16.242Z,28.30
2018-07-01T17:27:44.716Z,28.50
2018-07-01T17:30:13.191Z,28.70
2018-07-01T17:32:46.990Z,28.90
2018-07-01T17:35:15.452Z,28.90
2018-07-01T17:37:43.940Z,28.80
2018-07-01T17:40:12.420Z,29.10
2018-07-01T17:42:40.937Z,29.10
2018-07-01T17:45:09.433Z,29.30
2018-07-01T17:47:37.892Z,29.40
2018-07-01T17:50:06.360Z,29.50
2018-07-01T17:52:34.824Z,29.60
2018-07-01T17:55:03.369Z,29.70
2018-07-01T17:57:31.824Z,29.90
2018-07-01T18:00:00.336Z,29.70
2018-07-01T18:02:28.804Z,30.00
2018-07-01T18:04:57.292Z,30.00
2018-07-01T18:07:25.763Z,30.40
2018-07-01T18:09:54.232Z,30.30
2018-07-01T18:12:22.691Z,30.20
2018-07-01T18:14:51.168Z,30.60
2018-07-01T18:17:19.636Z,31.00
2018-07-01T18:22:27.955Z,31.00
2018-07-01T18:27:12.895Z,31.40
2018-07-01T18:29:41.372Z,31.60
2018-07-01T18:32:09.840Z,31.90
2018-07-01T18:34:38.295Z,31.90
2018-07-01T18:37:06.772Z,32.40
2018-07-01T18:42:03.408Z,32.20
2018-07-01T18:44:31.891Z,32.50
2018-07-01T18:47:00.371Z,32.60
2018-07-01T18:49:28.809Z,32.40
2018-07-01T18:51:57.280Z,32.60
2018-07-01T18:54:25.757Z,33.10
2018-07-01T18:56:54.220Z,33.30
2018-07-01T18:59:22.716Z,32.90
2018-07-01T19:01:51.201Z,32.80
2018-07-01T19:04:19.772Z,32.90
2018-07-01T19:06:48.255Z,33.20
2018-07-01T19:09:16.727Z,32.90
2018-07-01T19:11:45.187Z,33.00
2018-07-01T19:14:13.695Z,33.10
2018-07-01T19:16:42.152Z,34.10
2018-07-01T19:21:38.803Z,33.30
2018-07-01T19:24:07.329Z,33.90
2018-07-01T19:26:35.838Z,33.40
2018-07-01T19:29:04.327Z,33.50
2018-07-01T19:31:32.796Z,33.60
2018-07-01T19:34:01.281Z,33.30
2018-07-01T19:36:29.736Z,33.20
2018-07-01T19:38:58.195Z,33.40
2018-07-01T19:43:54.926Z,33.10
2018-07-01T19:48:51.523Z,33.40
2018-07-01T19:51:19.976Z,33.30
2018-07-01T19:56:16.605Z,33.50
2018-07-01T19:58:45.090Z,33.70
2018-07-01T20:01:13.628Z,33.80
2018-07-01T20:03:42.108Z,34.10
2018-07-01T20:06:10.617Z,34.40
2018-07-01T20:08:39.092Z,34.30
2018-07-01T20:11:07.744Z,34.40
2018-07-01T20:13:36.194Z,34.50
2018-07-01T20:16:04.712Z,34.80
2018-07-01T20:18:34.070Z,35.00
2018-07-01T20:21:02.517Z,35.10
2018-07-01T20:23:30.976Z,35.40
2018-07-01T20:25:59.456Z,35.60
2018-07-01T20:30:56.106Z,36.00
2018-07-01T20:33:24.611Z,35.70
2018-07-01T20:35:53.120Z,36.10
2018-07-01T20:38:21.576Z,36.40
2018-07-01T20:40:50.092Z,36.40
2018-07-01T20:43:18.559Z,36.70
2018-07-01T20:45:47.012Z,36.80
2018-07-01T20:48:15.561Z,36.90
2018-07-01T20:50:43.992Z,36.90
2018-07-01T20:53:12.464Z,37.00
2018-07-01T20:55:40.916Z,37.20
2018-07-01T21:00:37.536Z,37.40
2018-07-01T21:03:06.011Z,38.00
2018-07-01T21:05:34.485Z,37.60
2018-07-01T21:08:03.010Z,38.00
2018-07-01T21:12:59.666Z,38.10
2018-07-01T21:15:28.107Z,38.50
2018-07-01T21:17:56.557Z,38.40
2018-07-01T21:20:25.077Z,38.60
2018-07-01T21:22:53.626Z,38.70
2018-07-01T21:25:22.104Z,38.90
2018-07-01T21:27:50.556Z,39.00
2018-07-01T21:32:47.168Z,39.40
2018-07-01T21:35:15.696Z,39.50
2018-07-01T21:37:44.187Z,39.60
2018-07-01T21:40:12.655Z,39.90
2018-07-01T21:42:41.164Z,39.90
2018-07-01T21:45:09.924Z,40.20
2018-07-01T21:47:38.731Z,40.10
2018-07-01T21:50:07.551Z,40.40
2018-07-01T21:52:36.310Z,40.90
2018-07-01T21:55:05.272Z,41.40
2018-07-01T22:02:30.066Z,41.40
2018-07-01T22:04:58.604Z,41.40
2018-07-01T22:07:27.263Z,41.80
2018-07-01T22:12:35.123Z,42.10
2018-07-01T22:15:22.129Z,42.20
2018-07-01T22:17:50.591Z,42.10
2018-07-01T22:22:47.264Z,42.50
2018-07-01T22:25:15.889Z,42.60
2018-07-01T22:27:44.367Z,42.70
2018-07-01T22:30:12.872Z,42.90
2018-07-01T22:32:41.368Z,43.10
2018-07-01T22:37:38.040Z,43.80
2018-07-01T22:40:06.907Z,43.40
2018-07-01T22:42:35.403Z,43.90
2018-07-01T22:47:32.052Z,44.10
2018-07-01T22:50:00.563Z,44.10
2018-07-01T22:52:29.051Z,44.10
2018-07-01T22:54:57.556Z,44.40
2018-07-01T22:57:26.036Z,44.50
2018-07-01T22:59:54.563Z,44.60
2018-07-01T23:03:04.887Z,44.90
2018-07-01T23:05:33.379Z,45.10
2018-07-01T23:08:01.924Z,45.20
2018-07-01T23:10:31.223Z,45.30
2018-07-01T23:13:00.204Z,45.40
2018-07-01T23:15:28.723Z,45.60
2018-07-01T23:17:57.239Z,45.60
2018-07-01T23:20:25.739Z,45.90
2018-07-01T23:22:54.339Z,46.10
2018-07-01T23:25:22.848Z,46.30
2018-07-01T23:27:51.363Z,46.50
2018-07-01T23:30:19.851Z,46.60
2018-07-01T23:32:48.367Z,46.80
2018-07-01T23:35:16.863Z,46.80
2018-07-01T23:37:45.391Z,47.40
2018-07-01T23:40:13.871Z,46.90
2018-07-01T23:42:42.924Z,47.00
2018-07-01T23:45:12.816Z,47.40
2018-07-01T23:50:09.635Z,47.70
2018-07-01T23:52:38.135Z,47.90
2018-07-01T23:55:07.219Z,48.10
2018-07-01T23:57:35.779Z,48.40
